Ince Evrenye — 9V2456 — position and weather

sailwx.info

Track history (hours):
 
Tides and Currents Weather Stations Pressure Air Temp Water Temp Dewpoint Dewpoint Depression Visibility Wind Speed Wind Dir Waves Ship Positions

Ince Evrenye

Last reported at 2018-Feb-02 03:25 UTC. Time now 2018-Feb-20 15:10 UTC.
Position N 01°15' E 104°05'.
Warning: this ship's position is 18 days out of date.

Length 170 m; draft 5.4 m.

Type: Cargo ship. MMSI: 563533000.

Date/timePositionNaut miles runAvg speedWind from/ knotsBaromVisibWave heightAir tempDewpointWater temp
2018-Feb-02 03:25N 01°15' E 104°05'5 9.9
2018-Feb-02 02:56N 01°14' E 104°00'4 8.5
2018-Feb-02 02:28N 01°15' E 103°56'2 4.0
2018-Feb-02 01:55N 01°16' E 103°55'0 0.0
2018-Feb-02 01:19N 01°16' E 103°55'0 0.0
2018-Feb-02 00:55N 01°16' E 103°55'0 0.0
2018-Feb-02 00:28N 01°16' E 103°55'0 0.0
2018-Feb-01 23:55N 01°16' E 103°55'0 0.0
2018-Feb-01 23:28N 01°16' E 103°55'0 0.0
2018-Feb-01 22:55N 01°16' E 103°55'0 0.0
2018-Feb-01 21:55N 01°16' E 103°55'0 0.0
2018-Feb-01 21:25N 01°16' E 103°55'0 0.0
2018-Feb-01 19:25N 01°16' E 103°55'0 0.0
2018-Feb-01 18:55N 01°16' E 103°55'0 0.0
2018-Feb-01 18:25N 01°16' E 103°55'0 0.0
2018-Feb-01 17:58N 01°16' E 103°55'0 0.0
2018-Feb-01 17:25N 01°16' E 103°55'0 0.0
2018-Feb-01 16:49N 01°16' E 103°55'0 0.0
2018-Feb-01 16:25N 01°16' E 103°55'0 0.0
2018-Feb-01 15:55N 01°16' E 103°55'0 0.0
2018-Feb-01 15:25N 01°16' E 103°55'0 0.0
2018-Feb-01 14:55N 01°16' E 103°55'3 1.8
2018-Feb-01 13:30N 01°15' E 103°57'2 3.9
2018-Feb-01 13:00N 01°14' E 103°56'3 6.7
2018-Feb-01 12:30N 01°12' E 103°53'4 8.3
2018-Feb-01 12:00N 01°11' E 103°49'9 9.1
2018-Feb-01 11:00N 01°05' E 103°42'5 9.7
2018-Feb-01 10:30N 01°03' E 103°38'5 9.0
2018-Feb-01 09:59N 01°06' E 103°34'510.1
2018-Feb-01 09:31N 01°08' E 103°30'5 9.5
2018-Feb-01 08:59N 01°11' E 103°25'510.0
2018-Feb-01 08:30N 01°14' E 103°22'  
Track history (hours):
 
Tides and Currents Weather Stations Pressure Air Temp Water Temp Dewpoint Dewpoint Depression Visibility Wind Speed Wind Dir Waves Ship Positions

Ince Evrenye

Last reported at 2018-Feb-02 03:25 UTC. Time now 2018-Feb-20 15:11 UTC.
Position N 01°15' E 104°05'.
Warning: this ship's position is 18 days out of date.

Length 170 m; draft 5.4 m.

Type: Cargo ship. MMSI: 563533000.

Date/timePositionNaut miles runAvg speedWind from/ knotsBaromVisibWave heightAir tempDewpointWater temp
2018-Feb-02 03:25N 01°15' E 104°05'5 9.9
2018-Feb-02 02:56N 01°14' E 104°00'4 8.5
2018-Feb-02 02:28N 01°15' E 103°56'2 4.0
2018-Feb-02 01:55N 01°16' E 103°55'0 0.0
2018-Feb-02 01:19N 01°16' E 103°55'0 0.0
2018-Feb-02 00:55N 01°16' E 103°55'0 0.0
2018-Feb-02 00:28N 01°16' E 103°55'0 0.0
2018-Feb-01 23:55N 01°16' E 103°55'0 0.0
2018-Feb-01 23:28N 01°16' E 103°55'0 0.0
2018-Feb-01 22:55N 01°16' E 103°55'0 0.0
2018-Feb-01 21:55N 01°16' E 103°55'0 0.0
2018-Feb-01 21:25N 01°16' E 103°55'0 0.0
2018-Feb-01 19:25N 01°16' E 103°55'0 0.0
2018-Feb-01 18:55N 01°16' E 103°55'0 0.0
2018-Feb-01 18:25N 01°16' E 103°55'0 0.0
2018-Feb-01 17:58N 01°16' E 103°55'0 0.0
2018-Feb-01 17:25N 01°16' E 103°55'0 0.0
2018-Feb-01 16:49N 01°16' E 103°55'0 0.0
2018-Feb-01 16:25N 01°16' E 103°55'0 0.0
2018-Feb-01 15:55N 01°16' E 103°55'0 0.0
2018-Feb-01 15:25N 01°16' E 103°55'0 0.0
2018-Feb-01 14:55N 01°16' E 103°55'3 1.8
2018-Feb-01 13:30N 01°15' E 103°57'2 3.9
2018-Feb-01 13:00N 01°14' E 103°56'3 6.7
2018-Feb-01 12:30N 01°12' E 103°53'4 8.3
2018-Feb-01 12:00N 01°11' E 103°49'9 9.1
2018-Feb-01 11:00N 01°05' E 103°42'5 9.7
2018-Feb-01 10:30N 01°03' E 103°38'5 9.0
2018-Feb-01 09:59N 01°06' E 103°34'510.1
2018-Feb-01 09:31N 01°08' E 103°30'5 9.5
2018-Feb-01 08:59N 01°11' E 103°25'510.0
2018-Feb-01 08:30N 01°14' E 103°22'  

Dump ship's entire track history